KUKT/UKT METAR and TAF weather

Enter ICAO airport designator
Station Type Date Time Source
KUKT METAR 2024/07/13 02:55 UTC NOAA

KUKT 130255Z AUTO 00000KT 10SM BKN022 OVC027 24/24 A3021 RMK AO2


Station Type Date Time Source
KUKT Decoded METAR 2024/07/13 02:55 UTC NOAA

Quakertown, Quakertown Airport, PA, United States (KUKT) 40-26-06N 075-22-54W
Jul 12, 2024 - 10:55 PM EDT / 2024.07.13 0255 UTC
Wind: Calm:0
Visibility: 10 mile(s):0
Sky conditions: overcast
Temperature: 75 F (24 C)
Dew Point: 75 F (24 C)
Relative Humidity: 100%
Pressure (altimeter): 30.21 in. Hg (1023 hPa)
ob: KUKT 130255Z AUTO 00000KT 10SM BKN022 OVC027 24/24 A3021 RMK AO2
cycle: 3

Station Type Date Time Source
KUKT TAF UTC NOAA

Error!

Example: see airport list